Time;durP1;ratioP1;P1;durP2;ratioP2;P2;SDS_P1;SDS_P2;PMS_P1;PMS_P2;Temp;Humidity;BMP_temperature;BMP_pressure;BME280_temperature;BME280_humidity;BME280_pressure;Samples;Min_cycle;Max_cycle;Signal;HPM_P1;HPM_P2
2021/08/14 00:00:24;;;;;;;17.33;7.13;;;16.50;83.50;;;;;;5133946;28;20455;-46
2021/08/14 00:02:50;;;;;;;15.38;7.63;;;16.40;83.80;;;;;;5133549;28;20068;-46
2021/08/14 00:05:16;;;;;;;11.60;6.85;;;16.40;83.30;;;;;;5133273;28;20106;-48
2021/08/14 00:07:41;;;;;;;10.10;6.35;;;16.40;83.50;;;;;;5133264;28;20027;-47
2021/08/14 00:10:08;;;;;;;19.80;8.30;;;16.30;83.50;;;;;;5133382;28;20098;-47
2021/08/14 00:12:33;;;;;;;16.02;6.88;;;16.30;83.70;;;;;;5133164;28;20023;-45
2021/08/14 00:14:59;;;;;;;13.55;6.70;;;16.30;83.60;;;;;;5133171;28;20027;-46
2021/08/14 00:17:24;;;;;;;13.23;6.60;;;16.20;83.60;;;;;;5133606;27;20106;-45
2021/08/14 00:19:50;;;;;;;15.15;7.63;;;16.30;83.70;;;;;;5136953;27;20030;-47
2021/08/14 00:22:16;;;;;;;10.20;6.38;;;16.30;83.70;;;;;;5137118;27;20476;-47
2021/08/14 00:24:41;;;;;;;16.25;7.55;;;16.20;84.10;;;;;;5136880;27;20386;-47
2021/08/14 00:27:07;;;;;;;13.25;6.35;;;16.20;84.40;;;;;;5136701;27;20027;-46
2021/08/14 00:29:33;;;;;;;11.82;6.57;;;16.20;84.50;;;;;;5137246;27;20023;-48
2021/08/14 00:31:58;;;;;;;19.50;9.32;;;16.20;84.40;;;;;;5137179;27;20106;-45
2021/08/14 00:34:24;;;;;;;12.27;7.18;;;16.20;84.10;;;;;;5136855;27;20024;-46
2021/08/14 00:36:50;;;;;;;11.05;7.03;;;16.20;84.00;;;;;;5136870;27;20031;-47
2021/08/14 00:39:15;;;;;;;14.57;7.28;;;16.20;83.90;;;;;;5137023;27;20102;-46
2021/08/14 00:41:41;;;;;;;15.77;6.13;;;16.10;83.90;;;;;;5136781;27;20459;-47
2021/08/14 00:44:07;;;;;;;12.85;6.22;;;16.10;84.00;;;;;;5137392;27;20060;-49
2021/08/14 00:46:33;;;;;;;14.25;7.13;;;16.10;83.90;;;;;;5136963;27;20502;-46
2021/08/14 00:49:00;;;;;;;14.68;6.55;;;16.20;84.10;;;;;;5136767;27;20016;-47
2021/08/14 00:51:26;;;;;;;11.18;7.03;;;16.10;84.10;;;;;;5118255;27;20030;-46
2021/08/14 00:53:52;;;;;;;16.65;7.35;;;16.00;84.40;;;;;;5136418;27;20382;-46
2021/08/14 00:56:22;;;;;;;14.18;6.45;;;16.00;84.20;;;;;;5136724;27;20042;-46
2021/08/14 00:58:54;;;;;;;16.08;7.18;;;16.10;83.80;;;;;;5136909;27;20026;-46
2021/08/14 01:01:26;;;;;;;11.57;6.20;;;16.00;84.30;;;;;;5137204;27;20031;-46
2021/08/14 01:03:56;;;;;;;13.02;6.28;;;15.90;84.30;;;;;;5136158;27;20065;-45
2021/08/14 01:06:25;;;;;;;14.15;6.60;;;15.90;84.50;;;;;;5136245;27;20504;-46
2021/08/14 01:08:55;;;;;;;13.68;7.90;;;15.80;84.70;;;;;;5135976;27;20106;-46
2021/08/14 01:11:22;;;;;;;21.63;6.30;;;15.80;84.60;;;;;;5136281;27;20447;-46
2021/08/14 01:13:48;;;;;;;14.82;6.75;;;15.80;84.60;;;;;;5135474;27;20080;-47
2021/08/14 01:16:14;;;;;;;10.43;6.40;;;15.80;84.80;;;;;;5135303;27;20096;-46
2021/08/14 01:18:44;;;;;;;11.75;7.38;;;15.70;85.30;;;;;;5135439;27;20055;-46
2021/08/14 01:21:13;;;;;;;12.65;5.75;;;15.60;85.30;;;;;;5135250;27;20034;-47
2021/08/14 01:23:41;;;;;;;13.73;6.28;;;15.50;85.70;;;;;;5135315;27;20040;-46
2021/08/14 01:26:08;;;;;;;12.60;5.65;;;15.40;85.90;;;;;;5135512;27;20434;-46
2021/08/14 01:28:36;;;;;;;10.27;5.63;;;15.30;86.30;;;;;;5135071;27;20070;-47
2021/08/14 01:31:06;;;;;;;10.55;6.13;;;15.30;86.30;;;;;;5135335;27;20535;-46
2021/08/14 01:33:34;;;;;;;;;;;15.30;86.70;;;;;;5135611;27;20581;-47
2021/08/14 01:36:06;;;;;;;11.23;6.57;;;15.40;86.40;;;;;;5135488;27;19915;-47
2021/08/14 01:38:31;;;;;;;7.90;4.85;;;15.40;86.30;;;;;;5135258;27;20020;-45
2021/08/14 01:40:57;;;;;;;11.13;6.07;;;15.40;86.20;;;;;;5135540;27;20029;-48
2021/08/14 01:43:23;;;;;;;10.80;6.43;;;15.50;86.20;;;;;;5136216;27;20421;-46
2021/08/14 01:45:50;;;;;;;12.75;6.60;;;15.50;86.10;;;;;;5135157;27;20034;-47
2021/08/14 01:48:16;;;;;;;11.68;6.57;;;15.50;86.10;;;;;;5135140;27;20062;-47
2021/08/14 01:50:42;;;;;;;11.57;6.25;;;15.50;85.70;;;;;;5135256;27;20106;-47
2021/08/14 01:53:08;;;;;;;10.93;5.82;;;15.40;85.80;;;;;;5134801;27;20043;-49
2021/08/14 01:55:35;;;;;;;15.73;6.60;;;15.40;85.80;;;;;;5135099;27;20360;-47
2021/08/14 01:58:03;;;;;;;10.00;6.30;;;15.40;86.00;;;;;;5135156;27;20048;-47
2021/08/14 02:00:29;;;;;;;9.52;5.78;;;15.40;85.90;;;;;;5135408;27;20015;-46
2021/08/14 02:02:56;;;;;;;16.35;6.57;;;15.50;85.90;;;;;;5134999;27;20073;-46
2021/08/14 02:05:21;;;;;;;13.68;6.07;;;15.50;85.70;;;;;;5134777;27;20133;-47
2021/08/14 02:07:47;;;;;;;12.15;6.40;;;15.50;85.70;;;;;;5134983;27;20030;-46
2021/08/14 02:10:13;;;;;;;15.18;6.20;;;15.50;85.60;;;;;;5134693;27;20069;-46
2021/08/14 02:12:39;;;;;;;12.60;6.57;;;15.40;85.80;;;;;;5134897;27;20438;-48
2021/08/14 02:15:05;;;;;;;10.10;6.55;;;15.40;85.70;;;;;;5134513;27;20473;-48
2021/08/14 02:17:31;;;;;;;12.10;6.70;;;15.40;85.80;;;;;;5134871;27;20019;-46
2021/08/14 02:19:57;;;;;;;10.20;6.00;;;15.40;85.80;;;;;;5134401;27;20025;-47
2021/08/14 02:22:22;;;;;;;9.80;6.22;;;15.30;85.80;;;;;;5116238;27;20405;-47
2021/08/14 02:24:48;;;;;;;9.93;5.32;;;15.30;86.10;;;;;;5134452;27;20062;-45
2021/08/14 02:27:13;;;;;;;7.65;6.13;;;15.40;86.00;;;;;;5134769;27;20027;-47
2021/08/14 02:29:39;;;;;;;15.38;5.95;;;15.30;86.00;;;;;;5134363;27;20485;-46
2021/08/14 02:32:05;;;;;;;14.88;6.43;;;15.30;86.20;;;;;;5134319;27;20030;-45
2021/08/14 02:34:30;;;;;;;14.95;7.47;;;15.20;86.40;;;;;;5134442;27;20374;-47
2021/08/14 02:36:56;;;;;;;10.48;6.75;;;15.20;86.60;;;;;;5134253;27;20032;-46
2021/08/14 02:39:21;;;;;;;17.73;7.90;;;15.20;86.40;;;;;;5134189;27;20019;-46
2021/08/14 02:41:47;;;;;;;12.80;5.90;;;15.20;86.50;;;;;;5133951;27;20463;-47
2021/08/14 02:44:13;;;;;;;10.00;5.88;;;15.20;86.40;;;;;;5134145;27;20060;-48
2021/08/14 02:46:38;;;;;;;9.68;6.38;;;15.30;86.20;;;;;;5134125;27;20023;-47
2021/08/14 02:49:04;;;;;;;11.45;5.57;;;15.30;86.20;;;;;;5134130;27;20076;-46
2021/08/14 02:51:29;;;;;;;11.18;5.40;;;15.30;86.00;;;;;;5134020;27;20019;-49
2021/08/14 02:53:55;;;;;;;14.40;6.53;;;15.30;86.00;;;;;;5133835;27;20066;-47
2021/08/14 02:56:21;;;;;;;12.07;6.90;;;15.20;86.10;;;;;;5134161;27;20110;-47
2021/08/14 02:58:46;;;;;;;11.30;6.90;;;15.20;86.30;;;;;;5133992;27;20027;-46
2021/08/14 03:01:12;;;;;;;13.00;6.63;;;15.20;86.20;;;;;;5134002;27;20019;-46
2021/08/14 03:03:37;;;;;;;14.48;6.55;;;15.20;86.30;;;;;;5133885;28;20020;-48
2021/08/14 03:06:03;;;;;;;16.17;7.90;;;15.20;86.30;;;;;;5134143;28;20062;-46
2021/08/14 03:08:29;;;;;;;12.27;6.40;;;15.20;86.50;;;;;;5134096;28;20579;-46
2021/08/14 03:10:54;;;;;;;12.82;7.35;;;15.10;86.50;;;;;;5134010;28;20451;-47
2021/08/14 03:13:20;;;;;;;10.07;6.88;;;15.10;86.50;;;;;;5134002;28;20030;-46
2021/08/14 03:15:45;;;;;;;15.13;7.63;;;15.10;86.50;;;;;;5116371;28;20352;-47
2021/08/14 03:18:11;;;;;;;9.77;6.95;;;15.10;86.60;;;;;;5133762;28;20076;-46
2021/08/14 03:20:37;;;;;;;15.93;8.35;;;15.20;86.60;;;;;;5133637;28;20083;-46
2021/08/14 03:23:03;;;;;;;11.55;7.13;;;15.20;86.10;;;;;;5134165;28;20027;-46
2021/08/14 03:25:29;;;;;;;8.77;5.93;;;15.10;86.20;;;;;;5133762;28;20111;-48
2021/08/14 03:27:54;;;;;;;9.98;5.63;;;15.00;86.30;;;;;;5133951;28;20374;-46
2021/08/14 03:30:20;;;;;;;13.18;6.05;;;15.00;86.50;;;;;;5115269;28;20030;-47
2021/08/14 03:32:46;;;;;;;9.35;5.78;;;15.00;86.50;;;;;;5133877;28;20023;-47
2021/08/14 03:35:14;;;;;;;10.68;6.05;;;15.00;86.30;;;;;;5115357;28;20381;-47
2021/08/14 03:37:40;;;;;;;10.43;6.25;;;15.00;86.30;;;;;;5133976;28;20411;-45
2021/08/14 03:40:07;;;;;;;16.90;7.15;;;14.90;86.40;;;;;;5133499;28;20016;-47
2021/08/14 03:42:33;;;;;;;14.07;6.38;;;15.00;86.40;;;;;;5133952;28;20486;-46
2021/08/14 03:44:59;;;;;;;13.55;7.63;;;14.90;86.60;;;;;;5133430;28;20023;-46
2021/08/14 03:47:24;;;;;;;9.75;6.00;;;14.80;86.50;;;;;;5133743;28;20535;-45
2021/08/14 03:49:50;;;;;;;10.20;6.32;;;14.80;86.60;;;;;;5133384;28;20025;-45
2021/08/14 03:52:16;;;;;;;13.02;7.32;;;14.80;86.80;;;;;;5133640;27;20031;-45
2021/08/14 03:54:46;;;;;;;8.68;5.70;;;14.80;86.90;;;;;;5100897;28;20047;-46
2021/08/14 03:57:12;;;;;;;12.95;6.57;;;14.80;87.00;;;;;;5116403;28;20055;-45
2021/08/14 03:59:38;;;;;;;10.77;6.75;;;14.80;86.90;;;;;;5116715;28;20082;-46
2021/08/14 04:02:03;;;;;;;13.48;6.07;;;14.70;86.80;;;;;;5116381;28;20024;-45
2021/08/14 04:04:29;;;;;;;13.10;7.18;;;14.60;87.00;;;;;;5097996;28;20114;-45
2021/08/14 04:06:54;;;;;;;10.40;6.00;;;14.50;87.10;;;;;;5116444;28;20107;-46
2021/08/14 04:09:20;;;;;;;10.90;6.88;;;14.50;87.10;;;;;;5116022;28;20027;-49
2021/08/14 04:11:46;;;;;;;11.77;6.78;;;14.50;87.10;;;;;;5116045;28;20040;-45
2021/08/14 04:14:12;;;;;;;14.55;6.45;;;14.50;87.10;;;;;;5115758;28;20383;-45
2021/08/14 04:16:37;;;;;;;10.35;7.10;;;14.50;87.20;;;;;;5116026;28;20464;-46
2021/08/14 04:19:03;;;;;;;16.73;7.47;;;14.60;87.20;;;;;;5116053;28;20102;-46
2021/08/14 04:21:29;;;;;;;12.88;6.28;;;14.60;87.20;;;;;;5115968;28;20042;-46
2021/08/14 04:23:54;;;;;;;19.45;7.45;;;14.60;87.40;;;;;;5116476;28;20049;-45
2021/08/14 04:26:20;;;;;;;14.35;8.30;;;14.70;86.80;;;;;;5097918;28;20131;-45
2021/08/14 04:28:45;;;;;;;12.00;6.80;;;14.60;86.90;;;;;;5116106;28;20039;-45
2021/08/14 04:31:11;;;;;;;11.80;6.78;;;14.60;86.60;;;;;;5116028;28;20023;-47
2021/08/14 04:33:37;;;;;;;13.32;6.35;;;14.60;86.70;;;;;;5097724;28;20028;-46
2021/08/14 04:36:03;;;;;;;8.63;6.18;;;14.60;86.80;;;;;;5116010;28;20034;-45
2021/08/14 04:38:28;;;;;;;13.35;6.57;;;14.50;86.80;;;;;;5116320;28;20475;-47
2021/08/14 04:40:54;;;;;;;12.57;7.45;;;14.40;87.10;;;;;;5116410;28;20118;-47
2021/08/14 04:43:20;;;;;;;11.43;6.53;;;14.40;87.30;;;;;;5115934;28;20049;-47
2021/08/14 04:45:45;;;;;;;10.68;7.05;;;14.50;87.30;;;;;;5116219;28;20383;-47
2021/08/14 04:48:11;;;;;;;12.23;7.15;;;14.50;87.20;;;;;;5115990;28;20387;-45
2021/08/14 04:50:37;;;;;;;10.13;6.57;;;14.60;86.90;;;;;;5115745;28;20556;-45
2021/08/14 04:53:02;;;;;;;11.48;7.28;;;14.60;86.70;;;;;;5115436;28;20074;-45
2021/08/14 04:55:28;;;;;;;12.85;7.63;;;14.60;86.70;;;;;;5115493;28;20028;-49
2021/08/14 04:57:53;;;;;;;13.50;6.65;;;14.60;86.80;;;;;;5115552;28;20024;-45
2021/08/14 05:00:19;;;;;;;15.27;7.15;;;14.70;86.80;;;;;;5115390;28;20028;-46
2021/08/14 05:02:45;;;;;;;11.35;6.90;;;14.70;86.60;;;;;;5115467;28;20031;-46
2021/08/14 05:05:10;;;;;;;11.50;7.05;;;14.70;86.40;;;;;;5115075;28;20467;-46
2021/08/14 05:07:36;;;;;;;15.23;6.47;;;14.80;86.10;;;;;;5115599;28;20027;-45
2021/08/14 05:10:03;;;;;;;11.48;7.03;;;14.80;85.90;;;;;;5115327;28;20110;-48
2021/08/14 05:12:29;;;;;;;11.23;6.72;;;14.80;85.70;;;;;;5115566;28;20402;-45
2021/08/14 05:14:55;;;;;;;14.77;7.88;;;14.80;85.90;;;;;;5115332;28;20027;-44
2021/08/14 05:17:20;;;;;;;15.85;8.15;;;14.80;85.60;;;;;;5115213;28;20020;-47
2021/08/14 05:19:46;;;;;;;21.77;9.43;;;14.90;85.80;;;;;;5115127;28;20039;-45
2021/08/14 05:22:12;;;;;;;15.35;10.18;;;15.00;85.70;;;;;;5115086;28;20094;-45
2021/08/14 05:24:37;;;;;;;13.80;9.70;;;15.10;85.70;;;;;;5115241;28;20046;-45
2021/08/14 05:27:03;;;;;;;17.92;9.68;;;15.20;85.50;;;;;;5114941;28;20436;-46
2021/08/14 05:29:29;;;;;;;15.07;10.23;;;15.20;85.40;;;;;;5114878;28;20487;-45
2021/08/14 05:31:55;;;;;;;21.90;9.90;;;15.20;85.40;;;;;;5114703;28;20050;-47
2021/08/14 05:34:20;;;;;;;18.42;10.82;;;15.30;85.70;;;;;;5115012;28;20035;-46
2021/08/14 05:36:46;;;;;;;17.83;10.63;;;15.50;84.90;;;;;;5114737;28;20055;-46
2021/08/14 05:39:11;;;;;;;21.88;12.30;;;15.40;84.80;;;;;;5114775;28;20103;-46
2021/08/14 05:41:40;;;;;;;16.15;9.32;;;15.40;85.70;;;;;;5114625;28;20016;-47
2021/08/14 05:44:07;;;;;;;16.30;10.02;;;15.40;85.60;;;;;;5114681;28;20475;-48
2021/08/14 05:46:32;;;;;;;20.45;9.85;;;15.50;85.60;;;;;;5115275;28;20031;-46
2021/08/14 05:48:58;;;;;;;21.10;11.73;;;15.60;85.00;;;;;;5114475;28;20099;-49
2021/08/14 05:51:24;;;;;;;28.00;11.07;;;15.60;85.00;;;;;;5114465;28;20079;-48
2021/08/14 05:53:50;;;;;;;20.77;10.50;;;15.60;85.00;;;;;;5124339;27;20058;-48
2021/08/14 05:56:15;;;;;;;22.75;10.35;;;15.70;84.80;;;;;;5134962;27;20458;-46
2021/08/14 05:58:41;;;;;;;18.80;11.77;;;15.80;84.60;;;;;;5134750;27;20016;-46
2021/08/14 06:01:07;;;;;;;25.25;12.90;;;15.70;84.70;;;;;;5134791;27;20019;-47
2021/08/14 06:03:36;;;;;;;15.23;10.20;;;15.80;84.90;;;;;;5134793;27;20521;-48
2021/08/14 06:06:03;;;;;;;18.30;11.63;;;15.80;84.80;;;;;;5134977;27;20019;-47
2021/08/14 06:08:30;;;;;;;21.75;11.10;;;15.80;85.10;;;;;;5134534;27;20038;-46
2021/08/14 06:10:56;;;;;;;30.33;12.63;;;15.90;85.00;;;;;;5134809;27;20105;-49
2021/08/14 06:13:22;;;;;;;23.95;11.52;;;16.00;85.00;;;;;;5134547;27;20464;-47
2021/08/14 06:15:47;;;;;;;20.90;11.40;;;16.20;84.30;;;;;;5133517;27;20030;-49
2021/08/14 06:18:13;;;;;;;23.63;12.82;;;16.30;84.00;;;;;;5134913;27;20019;-47
2021/08/14 06:20:39;;;;;;;23.35;10.75;;;16.40;83.50;;;;;;5115874;27;20027;-47
2021/08/14 06:23:05;;;;;;;22.92;14.27;;;16.30;83.50;;;;;;5134203;27;20111;-46
2021/08/14 06:25:30;;;;;;;23.88;12.70;;;16.40;83.60;;;;;;5134473;27;20451;-46
2021/08/14 06:27:56;;;;;;;26.67;13.15;;;16.60;83.00;;;;;;5134211;27;20035;-46
2021/08/14 06:30:22;;;;;;;26.02;14.30;;;16.60;82.80;;;;;;5134455;27;20099;-47
2021/08/14 06:32:47;;;;;;;24.65;12.10;;;16.80;82.50;;;;;;5134105;27;20078;-50
2021/08/14 06:35:13;;;;;;;22.00;11.80;;;16.90;81.90;;;;;;5134304;27;20079;-50
2021/08/14 06:37:45;;;;;;;38.63;14.60;;;17.10;81.60;;;;;;5134147;27;20450;-47
2021/08/14 06:40:13;;;;;;;27.33;13.07;;;17.30;80.70;;;;;;5133635;27;20015;-46
2021/08/14 06:42:39;;;;;;;24.65;11.55;;;17.30;81.30;;;;;;5133421;27;20030;-50
2021/08/14 06:45:05;;;;;;;28.10;12.95;;;17.30;80.50;;;;;;5133585;27;20055;-48
2021/08/14 06:47:31;;;;;;;20.35;11.45;;;17.30;80.90;;;;;;5133825;27;20024;-50
2021/08/14 06:49:57;;;;;;;21.55;10.60;;;17.50;79.90;;;;;;5133404;27;20027;-47
2021/08/14 06:52:22;;;;;;;25.63;11.18;;;17.60;79.60;;;;;;5133764;27;20064;-51
2021/08/14 06:54:48;;;;;;;25.35;12.18;;;17.90;78.20;;;;;;5132660;27;20075;-46
2021/08/14 06:57:14;;;;;;;24.77;9.70;;;18.00;77.00;;;;;;5132985;27;20019;-47
2021/08/14 06:59:39;;;;;;;19.92;9.65;;;17.80;76.80;;;;;;5133044;27;20049;-46
2021/08/14 07:02:07;;;;;;;23.63;11.32;;;18.00;77.20;;;;;;5133435;27;20050;-47
2021/08/14 07:04:33;;;;;;;19.98;9.45;;;18.60;75.20;;;;;;5133318;27;20509;-48
2021/08/14 07:06:58;;;;;;;22.55;8.50;;;18.70;74.00;;;;;;5133149;27;20031;-49
2021/08/14 07:09:25;;;;;;;15.98;9.20;;;18.90;72.10;;;;;;5133165;28;20076;-47
2021/08/14 07:11:50;;;;;;;29.48;10.05;;;19.20;71.30;;;;;;5133215;28;20106;-49
2021/08/14 07:14:16;;;;;;;25.80;8.88;;;19.10;71.60;;;;;;5132937;28;20062;-47
2021/08/14 07:16:42;;;;;;;23.02;8.23;;;19.10;71.10;;;;;;5133889;28;20543;-46
2021/08/14 07:19:07;;;;;;;16.95;8.63;;;18.60;71.70;;;;;;5133506;28;20024;-46
2021/08/14 07:21:33;;;;;;;18.73;8.32;;;18.60;71.60;;;;;;5133352;28;20047;-47
2021/08/14 07:23:59;;;;;;;18.58;8.52;;;18.70;70.70;;;;;;5132808;28;20034;-48
2021/08/14 07:26:24;;;;;;;24.98;9.23;;;18.80;70.40;;;;;;5133018;27;20028;-53
2021/08/14 07:28:50;;;;;;;19.85;7.97;;;19.00;69.60;;;;;;5136937;27;20023;-47
2021/08/14 07:31:16;;;;;;;17.42;7.88;;;19.30;69.10;;;;;;5137323;27;20026;-46
2021/08/14 07:33:41;;;;;;;17.55;7.07;;;19.30;68.80;;;;;;5137277;27;20347;-46
2021/08/14 07:36:08;;;;;;;18.27;6.68;;;19.30;68.80;;;;;;5136928;27;20024;-45
2021/08/14 07:38:34;;;;;;;17.27;7.20;;;19.30;67.10;;;;;;5136981;27;20023;-49
2021/08/14 07:41:00;;;;;;;14.18;6.03;;;19.30;67.20;;;;;;5137229;27;20027;-46
2021/08/14 07:43:26;;;;;;;18.88;6.63;;;19.70;66.80;;;;;;5137510;27;20391;-47
2021/08/14 07:45:51;;;;;;;20.25;6.85;;;19.80;65.80;;;;;;5136924;27;20029;-47
2021/08/14 07:48:17;;;;;;;27.08;11.05;;;20.10;64.60;;;;;;5118553;27;20031;-48
2021/08/14 07:50:43;;;;;;;18.88;8.93;;;19.90;63.50;;;;;;5136938;27;20023;-47
2021/08/14 07:53:09;;;;;;;16.02;6.15;;;19.90;64.20;;;;;;5132930;27;20106;-47
2021/08/14 07:55:35;;;;;;;13.38;5.40;;;20.00;63.00;;;;;;5116478;28;20047;-46
2021/08/14 07:58:00;;;;;;;16.23;6.40;;;20.10;63.00;;;;;;5116751;28;20027;-49
2021/08/14 08:00:27;;;;;;;13.50;5.47;;;20.00;62.40;;;;;;5098369;28;20462;-46
2021/08/14 08:02:54;;;;;;;12.65;4.65;;;20.20;60.80;;;;;;5116227;28;20027;-46
2021/08/14 08:05:20;;;;;;;13.63;4.05;;;20.90;58.60;;;;;;5115954;28;20119;-46
2021/08/14 08:07:46;;;;;;;14.10;5.65;;;20.90;58.90;;;;;;5115984;28;20027;-49
2021/08/14 08:10:15;;;;;;;16.02;5.60;;;21.30;57.60;;;;;;5115995;28;20032;-46
2021/08/14 08:12:44;;;;;;;13.20;4.30;;;21.50;56.70;;;;;;5117720;28;20101;-50
2021/08/14 08:15:12;;;;;;;14.52;4.40;;;22.00;55.30;;;;;;5116276;28;20031;-49
2021/08/14 08:17:38;;;;;;;11.85;4.00;;;22.10;53.60;;;;;;5116316;28;20356;-47
2021/08/14 08:20:05;;;;;;;9.85;3.72;;;21.50;55.50;;;;;;5115988;28;20459;-47
2021/08/14 08:22:31;;;;;;;13.82;4.80;;;21.80;54.70;;;;;;5115818;28;20046;-47
2021/08/14 08:24:57;;;;;;;13.13;3.47;;;21.60;54.20;;;;;;5115863;28;20487;-46
2021/08/14 08:27:23;;;;;;;9.73;4.43;;;22.00;53.10;;;;;;5115531;28;20043;-47
2021/08/14 08:29:49;;;;;;;12.15;4.13;;;22.70;52.30;;;;;;5115574;28;20035;-51
2021/08/14 08:32:14;;;;;;;7.53;4.60;;;23.10;49.80;;;;;;5115568;28;20096;-47
2021/08/14 08:34:40;;;;;;;9.75;4.05;;;23.30;49.10;;;;;;5115750;28;20020;-49
2021/08/14 08:37:06;;;;;;;11.95;5.00;;;23.10;48.70;;;;;;5115768;28;20028;-49
2021/08/14 08:39:32;;;;;;;12.98;3.70;;;23.00;48.50;;;;;;5115007;28;20027;-47
2021/08/14 08:41:58;;;;;;;9.95;3.30;;;23.10;49.30;;;;;;5115991;28;20367;-48
2021/08/14 08:44:25;;;;;;;9.38;4.35;;;23.80;47.20;;;;;;5115719;28;20020;-48
2021/08/14 08:46:50;;;;;;;10.02;3.65;;;24.60;44.80;;;;;;5097037;28;20467;-50
2021/08/14 08:49:19;;;;;;;15.02;4.50;;;24.50;45.00;;;;;;5115474;28;20038;-47
2021/08/14 08:51:45;;;;;;;5.68;3.50;;;23.30;47.00;;;;;;5115820;28;20028;-48
2021/08/14 08:54:15;;;;;;;9.48;3.97;;;23.40;47.20;;;;;;5127783;27;20185;-49
2021/08/14 08:56:41;;;;;;;16.17;4.57;;;23.80;45.70;;;;;;5135470;27;20063;-47
2021/08/14 08:59:11;;;;;;;9.15;3.22;;;24.20;44.30;;;;;;5135517;27;20036;-48
2021/08/14 09:01:41;;;;;;;7.35;3.20;;;24.30;43.30;;;;;;5135472;27;20076;-48
2021/08/14 09:04:20;;;;;;;;;;;24.20;42.90;;;;;;5117172;27;20068;-49
2021/08/14 09:06:45;;;;;;;8.18;5.65;;;24.50;41.80;;;;;;5135819;27;19907;-47
2021/08/14 09:09:13;;;;;;;11.68;3.53;;;24.40;42.10;;;;;;5134874;27;20095;-49
2021/08/14 09:11:49;;;;;;;10.10;3.78;;;24.00;41.90;;;;;;5134755;27;20027;-50
2021/08/14 09:14:15;;;;;;;10.02;3.45;;;24.40;42.30;;;;;;5134940;27;20023;-48
2021/08/14 09:16:40;;;;;;;6.78;3.00;;;24.00;42.10;;;;;;5135671;27;20148;-50
2021/08/14 09:19:06;;;;;;;6.50;2.97;;;24.50;41.40;;;;;;5134858;27;20031;-47
2021/08/14 09:21:33;;;;;;;9.68;4.22;;;24.50;41.10;;;;;;5136286;27;20038;-47
2021/08/14 09:24:06;;;;;;;11.15;3.50;;;24.10;42.40;;;;;;5115847;27;20031;-48
2021/08/14 09:26:37;;;;;;;10.15;3.58;;;24.80;41.60;;;;;;5116818;27;20375;-48
2021/08/14 09:29:06;;;;;;;9.00;2.55;;;25.20;41.10;;;;;;5117047;27;20030;-47
2021/08/14 09:31:47;;;;;;;7.95;3.78;;;25.50;40.00;;;;;;5134969;27;20103;-47
2021/08/14 09:34:18;;;;;;;8.27;3.30;;;26.20;38.50;;;;;;5135249;27;20058;-47
2021/08/14 09:36:56;;;;;;;10.30;3.47;;;25.70;38.70;;;;;;5099363;27;20129;-50
2021/08/14 09:39:22;;;;;;;5.05;2.60;;;25.60;38.90;;;;;;5116292;27;20034;-47
2021/08/14 09:41:48;;;;;;;12.55;3.58;;;25.60;38.20;;;;;;5134872;27;20106;-49
2021/08/14 09:44:15;;;;;;;10.45;2.85;;;25.70;38.60;;;;;;5099115;27;20538;-47
2021/08/14 09:46:42;;;;;;;6.68;2.55;;;25.80;36.00;;;;;;5134377;27;20023;-47
2021/08/14 09:49:10;;;;;;;9.35;3.78;;;26.30;35.60;;;;;;5134544;27;20156;-48
2021/08/14 09:51:38;;;;;;;9.75;3.92;;;26.00;37.20;;;;;;5134350;27;20624;-50
2021/08/14 09:54:04;;;;;;;8.27;3.10;;;25.80;37.60;;;;;;5134146;27;20037;-48
2021/08/14 09:56:37;;;;;;;9.25;3.08;;;26.70;36.40;;;;;;5133797;27;20035;-49
2021/08/14 09:59:07;;;;;;;6.55;2.03;;;27.20;35.60;;;;;;5134511;27;20023;-51
2021/08/14 10:01:36;;;;;;;;;;;26.80;33.30;;;;;;5134773;27;20015;-51
2021/08/14 10:04:03;;;;;;;8.00;2.23;;;27.00;33.60;;;;;;5133816;27;19957;-51
2021/08/14 10:06:29;;;;;;;7.82;2.38;;;26.10;34.60;;;;;;5133965;27;20396;-48
2021/08/14 10:08:56;;;;;;;4.68;2.05;;;25.80;33.80;;;;;;5134175;27;20556;-48
2021/08/14 10:11:22;;;;;;;7.38;2.28;;;26.50;32.30;;;;;;5115175;27;20030;-47
2021/08/14 10:13:47;;;;;;;7.65;2.72;;;26.30;32.90;;;;;;5133774;27;20098;-48
2021/08/14 10:16:14;;;;;;;4.38;1.92;;;26.30;33.10;;;;;;5133833;27;20102;-50
2021/08/14 10:18:42;;;;;;;25.27;3.72;;;26.30;32.50;;;;;;5133738;27;20030;-50
2021/08/14 10:21:14;;;;;;;7.22;3.30;;;26.00;32.00;;;;;;5134122;27;20027;-50
2021/08/14 10:23:41;;;;;;;3.78;2.28;;;26.00;32.60;;;;;;5133706;27;20022;-47
2021/08/14 10:26:07;;;;;;;7.68;2.28;;;26.60;32.70;;;;;;5133620;27;20042;-48
2021/08/14 10:28:55;;;;;;;12.13;3.30;;;27.40;31.70;;;;;;5133845;27;20030;-52
2021/08/14 10:31:30;;;;;;;8.55;2.60;;;27.30;31.60;;;;;;5115094;27;20096;-48
2021/08/14 10:34:11;;;;;;;5.38;2.08;;;26.70;33.40;;;;;;5133863;27;20327;-48
2021/08/14 10:36:41;;;;;;;8.70;2.30;;;27.30;32.60;;;;;;5133598;27;20027;-50
2021/08/14 10:39:19;;;;;;;7.25;2.50;;;27.40;32.80;;;;;;5133535;27;20031;-52
2021/08/14 10:41:47;;;;;;;7.53;3.50;;;27.70;32.60;;;;;;5133740;27;20042;-47
2021/08/14 10:44:13;;;;;;;4.70;2.45;;;27.80;32.90;;;;;;5133856;27;20133;-50
2021/08/14 10:46:50;;;;;;;12.63;2.92;;;28.20;33.10;;;;;;5133474;27;20439;-49
2021/08/14 10:49:31;;;;;;;9.07;3.95;;;28.00;32.60;;;;;;5133599;27;20359;-48
2021/08/14 10:52:03;;;;;;;6.05;2.90;;;27.00;34.40;;;;;;5133658;27;20052;-47
2021/08/14 10:54:28;;;;;;;7.97;3.45;;;28.30;32.70;;;;;;5133087;27;20375;-51
2021/08/14 10:56:55;;;;;;;5.90;2.97;;;28.30;32.50;;;;;;5133668;27;20027;-49
2021/08/14 10:59:39;;;;;;;8.20;3.10;;;27.90;32.80;;;;;;5133403;27;20084;-50
2021/08/14 11:02:08;;;;;;;10.40;2.75;;;27.80;33.50;;;;;;5132763;27;20053;-49
2021/08/14 11:04:40;;;;;;;10.35;3.65;;;27.90;33.40;;;;;;5133132;27;20026;-47
2021/08/14 11:07:18;;;;;;;7.65;3.15;;;27.60;34.20;;;;;;5115158;28;20537;-49
2021/08/14 11:09:47;;;;;;;9.48;3.15;;;28.10;32.90;;;;;;5115011;28;20047;-50
2021/08/14 11:12:44;;;;;;;9.47;3.07;;;28.50;33.10;;;;;;5132873;28;20383;-50
2021/08/14 11:15:20;;;;;;;9.55;3.10;;;28.30;32.20;;;;;;5124503;28;20046;-51
2021/08/14 11:17:57;;;;;;;13.57;3.03;;;28.00;32.60;;;;;;5133428;28;20531;-47
2021/08/14 11:20:23;;;;;;;6.40;3.03;;;27.10;33.70;;;;;;5132934;28;20026;-48
2021/08/14 11:22:52;;;;;;;7.57;2.90;;;27.10;33.90;;;;;;5132664;28;20103;-47
2021/08/14 11:25:30;;;;;;;5.18;2.83;;;27.40;32.90;;;;;;5133356;28;20019;-51
2021/08/14 11:28:04;;;;;;;5.95;2.70;;;27.60;33.10;;;;;;5133118;28;20029;-48
2021/08/14 11:30:34;;;;;;;4.43;2.42;;;27.30;34.90;;;;;;5132973;28;20102;-48
2021/08/14 11:33:04;;;;;;;11.52;3.72;;;27.50;33.40;;;;;;5133299;28;20102;-47
2021/08/14 11:35:30;;;;;;;7.40;3.63;;;27.30;33.60;;;;;;5133045;28;20024;-48
2021/08/14 11:37:59;;;;;;;10.82;3.95;;;27.30;34.40;;;;;;5132880;28;20020;-47
2021/08/14 11:40:33;;;;;;;6.40;3.00;;;27.40;34.00;;;;;;5132905;28;20497;-46
2021/08/14 11:43:12;;;;;;;8.13;3.22;;;28.30;33.00;;;;;;5114081;28;20019;-48
2021/08/14 11:45:39;;;;;;;4.53;2.85;;;27.00;34.30;;;;;;5133090;28;20106;-47
2021/08/14 11:48:13;;;;;;;5.28;2.30;;;27.20;34.70;;;;;;5133425;28;20023;-50
2021/08/14 11:50:45;;;;;;;6.50;2.83;;;27.30;34.20;;;;;;5132383;28;20042;-47
2021/08/14 11:53:12;;;;;;;4.75;2.28;;;27.40;34.00;;;;;;5128155;28;20128;-49
2021/08/14 11:55:38;;;;;;;7.60;2.80;;;27.50;34.60;;;;;;5112473;28;20036;-49
2021/08/14 11:58:04;;;;;;;9.80;2.72;;;27.20;34.70;;;;;;5093973;28;20570;-47
2021/08/14 12:00:38;;;;;;;7.82;2.70;;;26.80;35.50;;;;;;5112259;28;20099;-49
2021/08/14 12:03:12;;;;;;;7.13;2.97;;;26.90;35.60;;;;;;5112114;28;20020;-46
2021/08/14 12:05:42;;;;;;;5.03;3.13;;;27.20;35.70;;;;;;5112223;28;20028;-46
2021/08/14 12:08:15;;;;;;;6.40;3.38;;;27.50;35.20;;;;;;5111912;28;20468;-47
2021/08/14 12:10:40;;;;;;;8.05;3.25;;;27.40;35.90;;;;;;5111581;28;20053;-47
2021/08/14 12:13:08;;;;;;;8.85;3.60;;;27.40;35.20;;;;;;5111842;28;20028;-47
2021/08/14 12:15:42;;;;;;;4.25;2.63;;;27.30;35.70;;;;;;5114703;28;20540;-49
2021/08/14 12:18:08;;;;;;;2.88;1.98;;;27.40;35.60;;;;;;5115414;28;20047;-47
2021/08/14 12:20:37;;;;;;;8.32;3.03;;;27.30;35.60;;;;;;5115525;28;20024;-46
2021/08/14 12:23:23;;;;;;;5.95;2.60;;;27.50;35.80;;;;;;5116126;28;20344;-47
2021/08/14 12:25:56;;;;;;;7.07;3.42;;;27.60;35.90;;;;;;5115771;28;20046;-47
2021/08/14 12:28:30;;;;;;;5.40;2.90;;;28.30;34.90;;;;;;5115572;28;20463;-49
2021/08/14 12:30:58;;;;;;;8.82;2.92;;;27.50;36.20;;;;;;5115630;28;20410;-46
2021/08/14 12:33:25;;;;;;;6.30;2.42;;;27.70;36.90;;;;;;5096586;28;20031;-47
2021/08/14 12:36:03;;;;;;;10.45;3.13;;;28.60;35.10;;;;;;5115260;28;20023;-46
2021/08/14 12:38:31;;;;;;;7.00;2.97;;;27.90;36.50;;;;;;5115351;28;20093;-46
2021/08/14 12:41:12;;;;;;;7.97;2.70;;;29.10;34.90;;;;;;5114973;28;20332;-46